Time;durP1;ratioP1;P1;durP2;ratioP2;P2;SDS_P1;SDS_P2;PMS_P1;PMS_P2;Temp;Humidity;BMP_temperature;BMP_pressure;BME280_temperature;BME280_humidity;BME280_pressure;Samples;Min_cycle;Max_cycle;Signal;HPM_P1;HPM_P2
2022/10/17 00:00:36;;;;;;;10.65;4.20;;;;;;;15.70;80.43;98820.25;7393930;19;20027;-73
2022/10/17 00:03:03;;;;;;;9.15;4.65;;;;;;;15.67;80.67;98825.94;7394973;19;20082;-73
2022/10/17 00:05:30;;;;;;;9.40;4.10;;;;;;;15.66;80.42;98814.41;7390407;19;20018;-73
2022/10/17 00:07:57;;;;;;;11.07;4.97;;;;;;;15.63;80.42;98822.75;7389286;19;20015;-73
2022/10/17 00:10:24;;;;;;;7.80;4.70;;;;;;;15.67;80.36;98821.41;7390771;19;20019;-73
2022/10/17 00:12:51;;;;;;;11.43;4.15;;;;;;;15.66;80.36;98822.41;7390204;19;20013;-73
2022/10/17 00:15:19;;;;;;;12.40;4.40;;;;;;;15.59;80.39;98816.13;7389119;19;20011;-73
2022/10/17 00:17:46;;;;;;;6.05;3.35;;;;;;;15.45;80.68;98814.22;7389531;19;20015;-73
2022/10/17 00:20:13;;;;;;;12.93;3.33;;;;;;;15.50;80.83;98828.69;7392813;19;20050;-73
2022/10/17 00:22:40;;;;;;;6.45;3.40;;;;;;;15.61;80.22;98822.09;7390299;19;20100;-73
2022/10/17 00:25:07;;;;;;;6.40;3.85;;;;;;;15.53;79.85;98828.34;7385220;19;20350;-73
2022/10/17 00:27:35;;;;;;;6.63;4.05;;;;;;;15.52;79.90;98826.66;7388386;19;20042;-73
2022/10/17 00:30:03;;;;;;;9.25;3.28;;;;;;;15.48;79.79;98833.38;7387735;19;20026;-73
2022/10/17 00:32:29;;;;;;;14.10;3.67;;;;;;;15.40;80.13;98833.41;7391549;19;20025;-73
2022/10/17 00:34:57;;;;;;;7.78;3.08;;;;;;;15.42;79.92;98834.06;7392346;19;20660;-73
2022/10/17 00:37:24;;;;;;;5.53;2.80;;;;;;;15.35;79.92;98833.94;7393193;19;20090;-73
2022/10/17 00:39:51;;;;;;;8.25;2.67;;;;;;;15.28;80.17;98840.16;7387996;19;20014;-73
2022/10/17 00:42:18;;;;;;;6.45;2.90;;;;;;;15.24;80.30;98838.81;7387935;19;20009;-73
2022/10/17 00:44:46;;;;;;;8.90;3.45;;;;;;;15.22;80.38;98839.00;7388893;19;20018;-73
2022/10/17 00:47:16;;;;;;;4.07;2.65;;;;;;;15.23;80.49;98835.34;7388765;19;20043;-73
2022/10/17 00:49:43;;;;;;;11.07;3.08;;;;;;;15.20;80.67;98840.19;7389044;19;20018;-73
2022/10/17 00:52:22;;;;;;;9.63;2.83;;;;;;;15.21;80.51;98834.66;7391432;19;20346;-73
2022/10/17 00:54:54;;;;;;;5.35;3.25;;;;;;;15.20;80.79;98837.53;7389302;19;20041;-73
2022/10/17 00:57:21;;;;;;;4.40;3.00;;;;;;;15.23;80.58;98834.50;7390080;19;20023;-73
2022/10/17 00:59:53;;;;;;;8.07;3.42;;;;;;;15.23;80.83;98842.50;7389885;19;20478;-73
2022/10/17 01:02:20;;;;;;;12.70;3.30;;;;;;;15.24;80.64;98838.81;7389632;19;20627;-73
2022/10/17 01:04:49;;;;;;;5.50;2.70;;;;;;;15.28;80.73;98838.31;7387448;19;20073;-73
2022/10/17 01:07:16;;;;;;;10.40;3.13;;;;;;;15.28;80.45;98840.16;7390030;19;20384;-73
2022/10/17 01:09:44;;;;;;;7.40;2.72;;;;;;;15.24;80.82;98842.31;7389799;19;20018;-73
2022/10/17 01:12:15;;;;;;;12.15;3.00;;;;;;;15.14;80.77;98842.53;7390068;19;20030;-73
2022/10/17 01:14:57;;;;;;;7.53;3.08;;;;;;;15.21;80.43;98848.00;7390249;19;20011;-73
2022/10/17 01:17:35;;;;;;;7.05;3.17;;;;;;;15.21;80.60;98844.50;7388390;19;20010;-73
2022/10/17 01:20:39;;;;;;;10.27;2.75;;;;;;;15.15;80.54;98841.53;7386721;19;20014;-73
2022/10/17 01:23:18;;;;;;;6.88;2.97;;;;;;;15.08;80.50;98850.38;7388202;19;20018;-73
2022/10/17 01:26:07;;;;;;;8.40;2.45;;;;;;;15.05;79.94;98853.41;7387693;19;20026;-73
2022/10/17 01:28:54;;;;;;;7.57;2.72;;;;;;;14.84;79.96;98849.47;7387392;19;20018;-73
2022/10/17 01:31:22;;;;;;;5.30;2.90;;;;;;;14.82;80.12;98846.13;7388658;19;20014;-72
2022/10/17 01:34:07;;;;;;;6.18;2.72;;;;;;;14.85;80.12;98851.16;7388311;19;20093;-73
2022/10/17 01:36:58;;;;;;;8.07;2.40;;;;;;;14.86;80.26;98846.66;7387977;19;20018;-73
2022/10/17 01:39:46;;;;;;;8.80;2.78;;;;;;;14.83;80.43;98847.81;7385460;19;20015;-73
2022/10/17 01:42:48;;;;;;;6.25;3.00;;;;;;;14.82;80.44;98851.47;7386501;19;20014;-73
2022/10/17 01:45:24;;;;;;;6.43;2.92;;;;;;;14.78;80.49;98849.34;7386478;19;20372;-73
2022/10/17 01:47:51;;;;;;;6.90;2.80;;;;;;;14.77;80.47;98837.88;7386114;19;21061;-73
2022/10/17 01:50:27;;;;;;;5.80;2.80;;;;;;;14.76;80.52;98846.00;7386320;19;20011;-73
2022/10/17 01:52:58;;;;;;;6.78;2.25;;;;;;;14.75;81.07;98845.19;7387127;19;20054;-73
2022/10/17 01:55:35;;;;;;;5.45;2.40;;;;;;;14.86;80.85;98836.00;7385169;19;20536;-73
2022/10/17 01:58:23;;;;;;;2.90;2.55;;;;;;;14.86;80.25;98841.31;7383088;19;20026;-73
2022/10/17 02:00:51;;;;;;;7.90;2.53;;;;;;;14.86;80.23;98836.00;7387859;19;20015;-73
2022/10/17 02:03:18;;;;;;;8.85;3.15;;;;;;;14.83;80.33;98836.34;7388451;19;20022;-73
2022/10/17 02:05:46;;;;;;;8.35;2.50;;;;;;;14.80;80.49;98837.50;7381561;19;20010;-73
2022/10/17 02:08:13;;;;;;;6.03;2.70;;;;;;;14.81;80.64;98831.16;7384516;19;20607;-73
2022/10/17 02:11:15;;;;;;;5.15;2.90;;;;;;;14.80;80.97;98834.03;7386434;19;20024;-73
2022/10/17 02:13:51;;;;;;;4.53;2.93;;;;;;;14.79;80.96;98829.69;7384776;19;20033;-73
2022/10/17 02:16:34;;;;;;;10.68;2.40;;;;;;;14.79;81.10;98832.34;7388305;19;20494;-73
2022/10/17 02:19:02;;;;;;;6.18;3.15;;;;;;;14.85;80.95;98827.19;7384892;19;20034;-73
2022/10/17 02:21:52;;;;;;;5.78;2.92;;;;;;;14.86;80.59;98828.81;7386101;19;20047;-73
2022/10/17 02:24:31;;;;;;;4.53;2.70;;;;;;;14.82;80.43;98829.34;7385472;19;20406;-73
2022/10/17 02:27:11;;;;;;;7.60;2.80;;;;;;;14.80;80.32;98826.84;7383837;19;20355;-73
2022/10/17 02:29:52;;;;;;;11.15;3.03;;;;;;;14.75;80.08;98826.53;7383547;19;20014;-73
2022/10/17 02:32:34;;;;;;;4.95;2.58;;;;;;;14.62;80.37;98827.06;7389195;19;20010;-73
2022/10/17 02:35:02;;;;;;;5.55;2.55;;;;;;;14.63;80.62;98833.22;7387595;19;20015;-73
2022/10/17 02:37:30;;;;;;;4.22;2.70;;;;;;;14.57;80.52;98840.06;7384693;19;20037;-73
2022/10/17 02:39:58;;;;;;;13.18;2.30;;;;;;;14.59;80.69;98838.06;7382015;19;20447;-73
2022/10/17 02:42:26;;;;;;;7.07;3.10;;;;;;;14.57;80.87;98842.72;7385515;19;20018;-73
2022/10/17 02:44:58;;;;;;;3.35;2.58;;;;;;;14.59;80.72;98839.91;7382211;19;20018;-73
2022/10/17 02:47:35;;;;;;;9.98;2.85;;;;;;;14.53;81.13;98851.22;7381747;19;20022;-73
2022/10/17 02:50:05;;;;;;;7.20;2.15;;;;;;;14.47;81.07;98842.88;7382071;19;20023;-73
2022/10/17 02:52:47;;;;;;;8.32;2.90;;;;;;;14.58;80.94;98848.88;7385960;19;21285;-73
2022/10/17 02:55:22;;;;;;;8.57;3.35;;;;;;;14.58;80.94;98852.38;7377943;19;20018;-73
2022/10/17 02:57:55;;;;;;;10.38;2.85;;;;;;;14.53;80.84;98853.88;7384972;19;20031;-73
2022/10/17 03:00:24;;;;;;;3.45;2.42;;;;;;;14.48;81.00;98846.34;7384578;19;20111;-73
2022/10/17 03:02:52;;;;;;;7.57;3.00;;;;;;;14.48;80.89;98849.03;7384800;19;20019;-73
2022/10/17 03:05:22;;;;;;;17.48;2.75;;;;;;;14.49;80.82;98840.88;7383039;19;20019;-73
2022/10/17 03:07:48;;;;;;;9.35;2.92;;;;;;;14.49;80.78;98848.03;7385158;19;20363;-73
2022/10/17 03:10:15;;;;;;;7.65;2.80;;;;;;;14.44;80.82;98845.88;7386175;19;20018;-73
2022/10/17 03:12:42;;;;;;;7.07;2.40;;;;;;;14.49;80.41;98850.69;7382335;19;22339;-73
2022/10/17 03:15:11;;;;;;;4.72;3.50;;;;;;;14.44;80.28;98848.53;7384880;19;20014;-73
2022/10/17 03:17:37;;;;;;;6.97;2.92;;;;;;;14.42;80.41;98849.69;7391264;19;20010;-73
2022/10/17 03:20:06;;;;;;;3.90;2.20;;;;;;;14.39;80.15;98850.88;7397138;19;20011;-73
2022/10/17 03:22:33;;;;;;;3.25;2.58;;;;;;;14.32;79.95;98857.03;7399660;19;20359;-72
2022/10/17 03:25:02;;;;;;;7.30;2.42;;;;;;;14.24;80.39;98857.88;7399488;19;20046;-72
2022/10/17 03:27:29;;;;;;;7.30;2.60;;;;;;;14.18;80.58;98859.38;7397636;19;20018;-73
2022/10/17 03:29:56;;;;;;;6.80;2.22;;;;;;;14.19;80.78;98857.53;7397430;19;20040;-73
2022/10/17 03:32:23;;;;;;;7.53;2.10;;;;;;;14.23;80.83;98858.88;7397583;19;20015;-73
2022/10/17 03:34:50;;;;;;;8.52;2.15;;;;;;;14.30;80.76;98867.88;7395140;19;20044;-73
2022/10/17 03:37:16;;;;;;;5.30;2.28;;;;;;;14.33;80.84;98864.88;7399401;19;20006;-73
2022/10/17 03:39:43;;;;;;;3.30;2.35;;;;;;;14.35;80.98;98864.69;7396018;19;20018;-73
2022/10/17 03:42:10;;;;;;;8.05;2.13;;;;;;;14.37;80.63;98876.00;7398072;19;20026;-73
2022/10/17 03:44:37;;;;;;;3.90;2.00;;;;;;;14.37;80.54;98874.16;7394741;19;20023;-72
2022/10/17 03:47:03;;;;;;;11.63;2.28;;;;;;;14.32;80.74;98875.66;7394006;19;20093;-72
2022/10/17 03:49:32;;;;;;;9.77;2.75;;;;;;;14.30;80.85;98867.88;7400164;19;20461;-73
2022/10/17 03:51:59;;;;;;;5.30;2.92;;;;;;;14.25;80.84;98864.88;7398681;19;20018;-73
2022/10/17 03:54:26;;;;;;;3.03;2.65;;;;;;;14.24;80.74;98874.69;7397655;19;20371;-73
2022/10/17 03:56:53;;;;;;;12.52;2.90;;;;;;;14.20;80.77;98872.53;7399591;19;20029;-72
2022/10/17 03:59:21;;;;;;;5.68;2.50;;;;;;;14.23;80.79;98880.16;7397456;19;20031;-72
2022/10/17 04:01:57;;;;;;;9.45;2.65;;;;;;;14.28;80.58;98877.84;7396803;19;20191;-72
2022/10/17 04:04:24;;;;;;;7.10;2.58;;;;;;;14.30;80.37;98873.19;7395642;19;20085;-72
2022/10/17 04:06:50;;;;;;;6.70;2.30;;;;;;;14.32;80.48;98884.47;7400500;19;20019;-72
2022/10/17 04:09:17;;;;;;;6.25;2.25;;;;;;;14.29;80.14;98876.81;7394894;19;20408;-72
2022/10/17 04:11:59;;;;;;;5.30;2.35;;;;;;;14.20;80.27;98870.69;7398158;19;20497;-72
2022/10/17 04:14:25;;;;;;;6.15;2.67;;;;;;;14.16;80.30;98871.19;7396125;19;20046;-72
2022/10/17 04:16:53;;;;;;;6.35;1.92;;;;;;;14.10;80.44;98871.84;7395654;19;20014;-72
2022/10/17 04:19:20;;;;;;;9.90;2.65;;;;;;;14.03;80.85;98877.84;7390668;19;20021;-73
2022/10/17 04:21:48;;;;;;;4.60;2.13;;;;;;;14.07;80.81;98888.16;7397992;19;20025;-73
2022/10/17 04:24:16;;;;;;;12.52;2.30;;;;;;;13.91;81.06;98891.63;7394366;19;20107;-73
2022/10/17 04:26:52;;;;;;;9.82;3.20;;;;;;;13.70;81.31;98890.25;7398542;19;20022;-72
2022/10/17 04:29:24;;;;;;;4.78;2.72;;;;;;;13.73;81.27;98892.59;7392063;19;20022;-73
2022/10/17 04:31:54;;;;;;;5.68;2.75;;;;;;;13.75;81.45;98900.41;7390977;19;20604;-73
2022/10/17 04:34:31;;;;;;;6.75;2.78;;;;;;;13.83;81.28;98898.59;7387441;19;20020;-73
2022/10/17 04:36:58;;;;;;;14.40;2.42;;;;;;;13.90;81.03;98897.94;7389714;19;20044;-72
2022/10/17 04:39:26;;;;;;;11.50;2.90;;;;;;;13.91;80.81;98904.94;7387359;19;20018;-73
2022/10/17 04:41:55;;;;;;;7.82;3.05;;;;;;;13.88;80.84;98906.09;7388035;19;20487;-73
2022/10/17 04:44:22;;;;;;;7.30;2.53;;;;;;;13.82;80.54;98910.25;7390582;19;20018;-73
2022/10/17 04:46:51;;;;;;;12.45;2.80;;;;;;;13.72;80.93;98912.22;7391338;19;20035;-73
2022/10/17 04:49:18;;;;;;;5.03;2.60;;;;;;;13.70;80.78;98911.53;7386291;19;20034;-72
2022/10/17 04:51:47;;;;;;;9.38;2.45;;;;;;;13.61;81.16;98905.38;7388714;19;20022;-72
2022/10/17 04:54:20;;;;;;;9.05;2.40;;;;;;;13.61;81.21;98913.34;7388127;19;20011;-72
2022/10/17 04:56:53;;;;;;;;;;;;;;;13.68;80.82;98907.38;7388664;19;20014;-72
2022/10/17 04:59:19;;;;;;;5.70;2.65;;;;;;;13.70;80.58;98902.72;7385188;19;19918;-72
2022/10/17 05:01:52;;;;;;;3.20;2.15;;;;;;;13.68;80.52;98904.72;7390218;19;20025;-73
2022/10/17 05:04:19;;;;;;;7.18;2.60;;;;;;;13.61;80.43;98902.72;7380607;19;20022;-73
2022/10/17 05:06:51;;;;;;;4.38;2.20;;;;;;;13.65;80.38;98910.34;7388676;19;20037;-73
2022/10/17 05:09:21;;;;;;;13.98;2.60;;;;;;;13.66;80.67;98901.38;7386083;19;20029;-73
2022/10/17 05:11:48;;;;;;;10.20;2.55;;;;;;;13.70;80.80;98908.88;7387309;19;20022;-73
2022/10/17 05:14:16;;;;;;;8.57;2.33;;;;;;;13.74;81.00;98906.72;7386542;19;20022;-73
2022/10/17 05:16:43;;;;;;;8.00;2.38;;;;;;;13.80;80.91;98908.72;7387128;19;20019;-73
2022/10/17 05:19:10;;;;;;;9.15;2.38;;;;;;;13.82;80.79;98910.25;7388006;19;20014;-73
2022/10/17 05:21:43;;;;;;;6.85;2.47;;;;;;;13.82;80.69;98906.72;7388009;19;20014;-73
2022/10/17 05:24:12;;;;;;;4.93;2.60;;;;;;;13.79;80.70;98907.88;7389248;19;20119;-73
2022/10/17 05:26:38;;;;;;;4.88;2.55;;;;;;;13.80;80.62;98908.72;7387204;19;20023;-73
2022/10/17 05:29:05;;;;;;;8.10;2.53;;;;;;;13.82;80.72;98907.56;7388276;19;20021;-73
2022/10/17 05:31:36;;;;;;;8.60;2.45;;;;;;;13.77;80.47;98911.69;7387657;19;20011;-73
2022/10/17 05:34:04;;;;;;;5.78;2.63;;;;;;;13.75;80.52;98911.88;7384399;19;20078;-73
2022/10/17 05:36:37;;;;;;;4.97;2.40;;;;;;;13.74;80.52;98906.72;7389026;19;20043;-73
2022/10/17 05:39:04;;;;;;;6.85;2.47;;;;;;;13.79;80.70;98912.38;7388534;19;20011;-73
2022/10/17 05:41:33;;;;;;;6.45;2.85;;;;;;;13.81;80.61;98921.03;7386579;19;20015;-73
2022/10/17 05:44:00;;;;;;;3.88;2.80;;;;;;;13.81;80.46;98916.53;7386829;19;20025;-73
2022/10/17 05:46:40;;;;;;;5.25;2.70;;;;;;;13.81;80.72;98916.53;7388573;19;20010;-73
2022/10/17 05:49:09;;;;;;;3.20;2.60;;;;;;;13.84;80.63;98915.38;7386636;19;20006;-73
2022/10/17 05:51:51;;;;;;;7.35;2.90;;;;;;;13.86;80.51;98917.88;7388192;19;20478;-73
2022/10/17 05:54:18;;;;;;;4.35;2.28;;;;;;;13.87;80.52;98916.88;7388487;19;20465;-73
2022/10/17 05:56:44;;;;;;;4.20;2.65;;;;;;;13.89;80.48;98914.88;7389352;19;20011;-73
2022/10/17 05:59:11;;;;;;;11.15;2.78;;;;;;;13.88;80.57;98916.72;7387551;19;20010;-73
2022/10/17 06:01:47;;;;;;;4.88;2.40;;;;;;;13.95;80.58;98923.03;7388004;19;20018;-73
2022/10/17 06:04:14;;;;;;;9.52;2.85;;;;;;;13.95;80.89;98931.00;7386255;19;20367;-73
2022/10/17 06:06:42;;;;;;;2.63;2.30;;;;;;;14.04;80.94;98938.03;7386035;19;20023;-73
2022/10/17 06:09:09;;;;;;;10.23;2.92;;;;;;;14.08;80.88;98941.19;7386861;19;20014;-73
2022/10/17 06:11:38;;;;;;;6.35;2.67;;;;;;;14.18;80.95;98947.19;7388432;19;20029;-73
2022/10/17 06:14:06;;;;;;;10.82;2.53;;;;;;;14.24;80.70;98941.22;7387011;19;20018;-73
2022/10/17 06:16:33;;;;;;;3.78;2.55;;;;;;;14.32;80.54;98935.03;7385646;19;20090;-73
2022/10/17 06:19:00;;;;;;;6.57;2.55;;;;;;;14.38;80.07;98928.25;7384763;19;20014;-73
2022/10/17 06:21:28;;;;;;;8.75;2.88;;;;;;;14.36;80.08;98935.56;7385459;19;20048;-73
2022/10/17 06:24:04;;;;;;;5.13;2.42;;;;;;;14.40;79.92;98945.72;7385861;19;20410;-73
2022/10/17 06:26:34;;;;;;;5.68;2.63;;;;;;;14.36;79.90;98936.38;7387293;19;20078;-73
2022/10/17 06:29:01;;;;;;;7.03;2.67;;;;;;;14.28;80.18;98925.75;7387820;19;20025;-73
2022/10/17 06:31:33;;;;;;;11.02;2.60;;;;;;;14.38;79.91;98934.41;7385869;19;20416;-73
2022/10/17 06:34:00;;;;;;;6.85;2.55;;;;;;;14.45;79.59;98939.88;7387882;19;20046;-73
2022/10/17 06:36:27;;;;;;;2.78;2.30;;;;;;;14.47;79.68;98933.38;7387415;19;20113;-73
2022/10/17 06:38:54;;;;;;;7.43;3.08;;;;;;;14.42;79.95;98943.69;7384653;19;20011;-73
2022/10/17 06:41:40;;;;;;;5.80;2.88;;;;;;;14.42;80.12;98953.53;7387107;19;20052;-73
2022/10/17 06:44:10;;;;;;;4.82;2.80;;;;;;;14.45;80.01;98951.34;7387610;19;20054;-73
2022/10/17 06:46:57;;;;;;;3.30;2.70;;;;;;;14.47;80.11;98951.19;7387806;19;20097;-73
2022/10/17 06:49:26;;;;;;;10.77;2.60;;;;;;;14.50;79.94;98953.53;7383941;19;20138;-73
2022/10/17 06:52:16;;;;;;;7.80;2.70;;;;;;;14.52;80.11;98962.19;7385006;19;20017;-73
2022/10/17 06:54:56;;;;;;;10.50;3.10;;;;;;;14.54;80.09;98970.03;7383958;19;20750;-73
2022/10/17 06:57:31;;;;;;;6.70;2.90;;;;;;;14.63;80.15;98975.19;7386286;19;20010;-73
2022/10/17 07:00:20;;;;;;;8.15;2.88;;;;;;;14.75;80.34;98985.53;7386547;19;20754;-73
2022/10/17 07:02:50;;;;;;;8.15;2.97;;;;;;;14.84;79.70;98982.66;7386011;19;20026;-73
2022/10/17 07:05:18;;;;;;;3.90;2.90;;;;;;;14.90;79.59;98976.69;7383254;19;20014;-73
2022/10/17 07:07:45;;;;;;;4.22;2.80;;;;;;;15.03;78.94;98988.63;7385004;19;20024;-73
2022/10/17 07:10:17;;;;;;;6.65;3.50;;;;;;;15.15;78.49;98993.44;7388326;19;20449;-73
2022/10/17 07:12:44;;;;;;;7.10;2.88;;;;;;;15.15;78.12;98995.28;7384535;19;20125;-73
2022/10/17 07:15:12;;;;;;;4.55;3.25;;;;;;;15.19;77.99;99007.25;7384831;19;22979;-73
2022/10/17 07:17:38;;;;;;;4.88;2.85;;;;;;;15.21;77.88;99005.25;7386783;19;20022;-73
2022/10/17 07:20:06;;;;;;;6.45;2.40;;;;;;;15.32;77.64;98999.59;7385656;19;20482;-73
2022/10/17 07:22:34;;;;;;;6.05;3.33;;;;;;;15.36;77.96;99000.88;7384324;19;20035;-73
2022/10/17 07:25:01;;;;;;;7.35;3.47;;;;;;;15.45;77.45;99001.69;7384578;19;20078;-73
2022/10/17 07:27:33;;;;;;;5.00;2.67;;;;;;;15.41;77.82;99004.88;7384841;19;20022;-73
2022/10/17 07:30:00;;;;;;;7.68;2.95;;;;;;;15.42;77.82;99007.38;7383670;19;20809;-73
2022/10/17 07:32:36;;;;;;;5.70;3.03;;;;;;;15.50;77.67;99009.19;7384318;19;20434;-73
2022/10/17 07:35:03;;;;;;;9.80;3.72;;;;;;;15.51;77.70;99013.53;7382908;19;20090;-73
2022/10/17 07:37:30;;;;;;;8.45;3.03;;;;;;;15.51;77.80;99013.53;7383550;19;20022;-73
2022/10/17 07:39:58;;;;;;;8.77;3.20;;;;;;;15.67;77.79;99010.78;7380052;19;20021;-73
2022/10/17 07:42:26;;;;;;;5.05;2.55;;;;;;;15.77;77.35;99013.28;7384101;19;20791;-73
2022/10/17 07:44:54;;;;;;;6.75;2.90;;;;;;;15.89;77.45;99019.06;7382991;19;20088;-73
2022/10/17 07:47:21;;;;;;;9.80;2.97;;;;;;;15.91;77.18;99015.22;7383899;19;20018;-73
2022/10/17 07:49:49;;;;;;;6.70;3.95;;;;;;;16.02;77.17;99022.00;7384755;19;20015;-73
2022/10/17 07:52:16;;;;;;;6.30;4.20;;;;;;;16.20;76.75;99021.75;7385150;19;20018;-73
2022/10/17 07:54:42;;;;;;;6.32;3.97;;;;;;;16.36;76.10;99015.47;7383989;19;20033;-73
2022/10/17 07:57:10;;;;;;;12.18;3.08;;;;;;;16.47;76.13;99031.06;7381616;19;20019;-73
2022/10/17 07:59:37;;;;;;;4.65;2.80;;;;;;;16.45;76.13;99025.06;7385019;19;20019;-73
2022/10/17 08:02:04;;;;;;;8.27;2.47;;;;;;;16.51;76.10;99028.88;7383412;19;20043;-73
2022/10/17 08:04:31;;;;;;;5.63;2.65;;;;;;;16.64;75.73;99021.09;7386033;19;20018;-73
2022/10/17 08:06:59;;;;;;;8.48;2.80;;;;;;;16.78;75.49;99030.22;7393042;19;20014;-73
2022/10/17 08:09:44;;;;;;;7.30;2.60;;;;;;;16.91;75.00;99027.78;7392719;19;20022;-73
2022/10/17 08:12:13;;;;;;;7.25;3.25;;;;;;;16.99;75.04;99030.38;7388885;19;20014;-74
2022/10/17 08:14:41;;;;;;;8.55;3.33;;;;;;;17.09;74.26;99033.63;7390672;19;20015;-73
2022/10/17 08:17:08;;;;;;;3.75;2.65;;;;;;;17.28;74.19;99026.91;7391496;19;20017;-73
2022/10/17 08:19:39;;;;;;;7.60;3.72;;;;;;;17.43;74.09;99034.97;7389589;19;20018;-73
2022/10/17 08:22:06;;;;;;;8.68;3.33;;;;;;;17.54;74.34;99025.66;7394044;19;20033;-73
2022/10/17 08:24:32;;;;;;;9.88;3.10;;;;;;;17.65;73.71;99035.88;7392041;19;20027;-73
2022/10/17 08:26:59;;;;;;;5.60;2.70;;;;;;;17.78;73.23;99035.22;7391904;19;20018;-73
2022/10/17 08:29:26;;;;;;;9.82;4.85;;;;;;;17.91;72.84;99031.94;7387609;19;20010;-73
2022/10/17 08:31:53;;;;;;;12.70;3.92;;;;;;;18.06;72.88;99037.25;7389747;19;20014;-73
2022/10/17 08:34:26;;;;;;;8.98;3.33;;;;;;;18.06;72.18;99037.25;7391133;19;20014;-73
2022/10/17 08:36:53;;;;;;;4.05;2.50;;;;;;;18.11;72.10;99034.81;7391126;19;20018;-73
2022/10/17 08:39:20;;;;;;;10.65;4.20;;;;;;;18.16;71.63;99038.59;7392080;19;20046;-73
2022/10/17 08:41:55;;;;;;;8.25;3.47;;;;;;;18.08;71.66;99035.22;7391776;19;20022;-73
2022/10/17 08:44:28;;;;;;;7.20;2.58;;;;;;;18.07;72.08;99039.75;7389987;19;20014;-73
2022/10/17 08:46:58;;;;;;;7.47;2.25;;;;;;;18.15;72.29;99039.63;7391600;19;20021;-73
2022/10/17 08:49:37;;;;;;;3.63;2.60;;;;;;;18.25;71.87;99042.03;7390872;19;20010;-73
2022/10/17 08:52:29;;;;;;;3.95;2.17;;;;;;;18.28;72.64;99038.97;7391215;19;20359;-73
2022/10/17 08:54:56;;;;;;;5.85;2.83;;;;;;;18.17;71.51;99052.84;7390146;19;20010;-73
2022/10/17 08:57:23;;;;;;;3.25;2.25;;;;;;;18.24;70.88;99050.22;7389865;19;20425;-73
2022/10/17 08:59:51;;;;;;;4.63;2.85;;;;;;;18.34;71.31;99046.22;7392218;19;20018;-73
2022/10/17 09:02:32;;;;;;;9.57;4.55;;;;;;;18.49;71.08;99050.72;7388739;19;20113;-73
2022/10/17 09:05:20;;;;;;;19.60;9.55;;;;;;;18.66;70.73;99049.44;7388189;19;20015;-73
2022/10/17 09:08:01;;;;;;;4.80;2.97;;;;;;;18.79;70.50;99049.59;7390703;19;20014;-73
2022/10/17 09:10:27;;;;;;;7.43;2.53;;;;;;;18.79;69.90;99040.72;7388049;19;20011;-73
2022/10/17 09:13:16;;;;;;;12.18;2.20;;;;;;;18.64;69.77;99038.94;7390202;19;20468;-73
2022/10/17 09:15:54;;;;;;;6.95;3.05;;;;;;;18.82;70.13;99041.16;7390117;19;20064;-73
2022/10/17 09:18:28;;;;;;;6.78;2.90;;;;;;;18.88;70.32;99038.75;7389579;19;20026;-73
2022/10/17 09:21:27;;;;;;;9.63;3.40;;;;;;;19.00;69.44;99039.88;7385866;19;20015;-73
2022/10/17 09:23:58;;;;;;;3.92;2.95;;;;;;;19.13;69.64;99045.34;7389499;19;20014;-73
2022/10/17 09:26:40;;;;;;;4.82;2.28;;;;;;;19.19;69.14;99044.56;7386509;19;20926;-73
2022/10/17 09:29:24;;;;;;;5.03;3.90;;;;;;;19.22;69.05;99043.34;7390186;19;20014;-73
2022/10/17 09:32:13;;;;;;;7.82;4.50;;;;;;;19.22;68.83;99040.66;7391604;19;20039;-73
2022/10/17 09:34:40;;;;;;;7.43;2.90;;;;;;;19.27;68.79;99040.91;7387536;19;20015;-73
2022/10/17 09:37:12;;;;;;;5.55;2.00;;;;;;;19.17;68.08;99040.41;7384780;19;20014;-73
2022/10/17 09:39:40;;;;;;;6.82;2.28;;;;;;;19.21;68.23;99039.84;7380782;19;20011;-73
2022/10/17 09:42:12;;;;;;;6.40;3.83;;;;;;;19.25;68.25;99045.66;7378642;19;20011;-73
2022/10/17 09:45:10;;;;;;;13.15;4.55;;;;;;;19.26;68.15;99039.25;7381117;19;20021;-73
2022/10/17 09:47:40;;;;;;;6.13;3.88;;;;;;;19.22;67.86;99037.97;7386315;19;20043;-73
2022/10/17 09:50:29;;;;;;;10.07;5.03;;;;;;;19.24;68.22;99038.63;7386983;19;20014;-73
2022/10/17 09:53:00;;;;;;;14.45;5.97;;;;;;;19.40;68.82;99034.81;7387029;19;20011;-73
2022/10/17 09:55:36;;;;;;;5.45;3.35;;;;;;;19.51;69.09;99036.97;7386161;19;20098;-73
2022/10/17 09:58:05;;;;;;;4.32;3.05;;;;;;;19.62;69.41;99032.91;7384733;19;20365;-73
2022/10/17 10:00:34;;;;;;;4.45;1.85;;;;;;;19.68;68.65;99030.25;7384204;19;20018;-73
2022/10/17 10:03:20;;;;;;;5.90;2.13;;;;;;;19.78;69.15;99034.47;7389980;19;20461;-73
2022/10/17 10:06:04;;;;;;;9.88;2.65;;;;;;;19.84;69.06;99029.09;7385316;19;20018;-73
2022/10/17 10:08:34;;;;;;;14.98;5.55;;;;;;;19.89;68.55;99026.66;7383643;19;20465;-73
2022/10/17 10:11:06;;;;;;;11.57;5.97;;;;;;;19.96;68.49;99026.69;7383580;19;20034;-73
2022/10/17 10:13:35;;;;;;;9.02;4.28;;;;;;;20.00;67.69;99038.69;7383654;19;20018;-74
2022/10/17 10:16:15;;;;;;;9.05;5.50;;;;;;;20.09;68.11;99029.44;7381839;19;20007;-73
2022/10/17 10:18:43;;;;;;;4.97;2.83;;;;;;;20.11;67.92;99034.59;7386307;19;20011;-73
2022/10/17 10:21:14;;;;;;;6.85;2.95;;;;;;;20.18;68.09;99036.25;7383800;19;20106;-73
2022/10/17 10:23:42;;;;;;;3.80;2.42;;;;;;;20.25;68.32;99035.44;7386182;19;20019;-73
2022/10/17 10:26:21;;;;;;;4.45;1.92;;;;;;;20.36;68.86;99041.09;7380390;19;20016;-73
2022/10/17 10:29:07;;;;;;;10.70;2.53;;;;;;;20.41;67.49;99040.47;7384063;19;20018;-73
2022/10/17 10:31:36;;;;;;;5.75;1.60;;;;;;;20.52;67.05;99045.25;7387770;19;20371;-73
2022/10/17 10:34:17;;;;;;;7.80;2.28;;;;;;;20.68;66.71;99036.00;7387384;19;20010;-73
2022/10/17 10:37:15;;;;;;;5.65;1.80;;;;;;;20.79;67.30;99042.63;7387709;19;20046;-73
2022/10/17 10:40:19;;;;;;;11.77;2.33;;;;;;;20.82;66.37;99036.84;7388025;19;20019;-73
2022/10/17 10:42:49;;;;;;;2.22;1.85;;;;;;;20.88;65.20;99046.78;7383490;19;20014;-73
2022/10/17 10:45:37;;;;;;;6.90;2.00;;;;;;;20.97;64.13;99048.22;7383678;19;20481;-73
2022/10/17 10:48:25;;;;;;;2.60;1.95;;;;;;;21.02;65.25;99047.63;7387388;19;20014;-74
2022/10/17 10:51:04;;;;;;;5.22;2.53;;;;;;;21.14;65.96;99045.13;7385462;19;20010;-73
2022/10/17 10:53:40;;;;;;;7.38;2.30;;;;;;;21.19;66.71;99042.63;7387166;19;20043;-73
2022/10/17 10:56:25;;;;;;;4.82;2.05;;;;;;;21.14;65.46;99047.81;7385333;19;20034;-73
2022/10/17 10:59:07;;;;;;;10.43;2.13;;;;;;;21.09;64.92;99048.47;7385533;19;20044;-73
2022/10/17 11:02:02;;;;;;;2.83;2.47;;;;;;;21.12;64.42;99039.16;7385679;19;20473;-73
2022/10/17 11:04:44;;;;;;;3.13;2.00;;;;;;;21.10;64.09;99047.41;7384980;19;20014;-73
2022/10/17 11:07:22;;;;;;;8.50;2.15;;;;;;;21.17;64.81;99042.88;7383965;19;20014;-73
2022/10/17 11:10:07;;;;;;;3.88;1.75;;;;;;;21.21;63.79;99040.56;7386467;19;20011;-73
2022/10/17 11:12:39;;;;;;;2.60;2.10;;;;;;;21.31;63.13;99035.59;7386019;19;20021;-73
2022/10/17 11:15:28;;;;;;;6.57;2.60;;;;;;;21.35;64.59;99042.19;7382809;19;20018;-73
2022/10/17 11:18:02;;;;;;;3.83;2.10;;;;;;;21.31;61.80;99030.22;7380355;19;20485;-73
2022/10/17 11:20:35;;;;;;;6.40;2.25;;;;;;;21.39;61.10;99034.59;7384214;19;20026;-73
2022/10/17 11:23:31;;;;;;;5.22;2.00;;;;;;;21.58;62.49;99032.88;7381891;19;20015;-73
2022/10/17 11:26:02;;;;;;;2.85;1.88;;;;;;;21.50;61.07;99023.16;7387150;19;20010;-73
2022/10/17 11:28:29;;;;;;;5.43;1.85;;;;;;;21.58;62.08;99022.13;7385622;19;20015;-73
2022/10/17 11:31:06;;;;;;;5.93;1.92;;;;;;;21.68;63.20;99015.25;7387926;19;20024;-73
2022/10/17 11:33:39;;;;;;;4.55;1.83;;;;;;;21.69;61.08;99024.97;7384225;19;20018;-73
2022/10/17 11:36:08;;;;;;;5.57;1.70;;;;;;;21.82;61.60;99017.91;7383180;19;20018;-73
2022/10/17 11:38:35;;;;;;;5.28;1.70;;;;;;;21.92;61.59;99016.41;7384522;19;20022;-73
2022/10/17 11:41:03;;;;;;;5.57;1.92;;;;;;;21.94;60.94;99012.69;7390927;19;20015;-76
2022/10/17 11:43:56;;;;;;;5.07;1.63;;;;;;;21.93;60.64;99009.16;7392464;19;20480;-74
2022/10/17 11:46:24;;;;;;;3.63;2.20;;;;;;;21.98;60.01;99017.41;7392277;19;20014;-74
2022/10/17 11:49:17;;;;;;;3.28;1.50;;;;;;;22.08;61.03;99008.88;7392161;19;20758;-74
2022/10/17 11:51:55;;;;;;;5.20;1.73;;;;;;;22.10;60.91;99012.19;7389491;19;20019;-74
2022/10/17 11:55:00;;;;;;;4.32;1.70;;;;;;;22.10;61.24;99012.19;7387854;19;20018;-74
2022/10/17 11:57:36;;;;;;;3.83;1.83;;;;;;;22.24;62.52;99010.28;7398811;19;20015;-74